KRAL/RAL METAR and TAF weather

Enter ICAO airport designator
Station Type Date Time Source
KRAL METAR 2020/12/05 05:53 UTC NOAA

KRAL 050553Z AUTO 10004KT 10SM CLR 09/M09 A3020 RMK AO2 SLP217 T00891094 10222 20078 51017


Station Type Date Time Source
KRAL Decoded METAR 2020/12/05 05:53 UTC NOAA

RIVERSIDE MUNICIPAL AIRPORT , CA, United States (KRAL) 33-57N 117-27W 252M
Dec 05, 2020 - 12:53 AM EST / 2020.12.05 0553 UTC
Wind: from the E (100 degrees) at 5 MPH (4 KT):0
Visibility: 10 mile(s):0
Sky conditions: clear
Temperature: 48.0 F (8.9 C)
Dew Point: 15.1 F (-9.4 C)
Relative Humidity: 26%
Pressure (altimeter): 30.2 in. Hg (1022 hPa)
Pressure tendency: 0.05 inches (1.7 hPa) higher than three hours ago
ob: KRAL 050553Z AUTO 10004KT 10SM CLR 09/M09 A3020 RMK AO2 SLP217 T00891094 10222 20078 51017
cycle: 6

Station Type Date Time Source
KRAL TAF UTC NOAA

Error!

Example: see airport list